createdAt,value
2023-04-09T00:02:58.779Z,99.90
2023-04-09T00:06:01.627Z,99.90
2023-04-09T00:09:04.552Z,99.90
2023-04-09T00:12:08.690Z,99.90
2023-04-09T00:15:17.755Z,99.90
2023-04-09T00:18:31.012Z,99.90
2023-04-09T00:21:33.791Z,99.90
2023-04-09T00:24:36.541Z,99.90
2023-04-09T00:27:41.062Z,99.90
2023-04-09T00:30:43.856Z,99.90
2023-04-09T00:33:46.614Z,99.90
2023-04-09T00:36:49.366Z,99.90
2023-04-09T00:39:52.187Z,99.90
2023-04-09T00:42:57.058Z,99.90
2023-04-09T00:46:00.667Z,99.90
2023-04-09T00:49:03.633Z,99.90
2023-04-09T00:52:06.754Z,99.90
2023-04-09T00:55:11.374Z,99.90
2023-04-09T00:58:15.850Z,99.90
2023-04-09T01:01:18.711Z,99.90
2023-04-09T01:04:22.725Z,99.90
2023-04-09T01:07:35.361Z,99.90
2023-04-09T01:10:43.605Z,99.90
2023-04-09T01:13:54.962Z,99.90
2023-04-09T01:17:04.661Z,99.90
2023-04-09T01:20:11.658Z,99.90
2023-04-09T01:23:19.600Z,99.90
2023-04-09T01:26:39.405Z,99.90
2023-04-09T01:29:48.032Z,99.90
2023-04-09T01:32:52.027Z,99.90
2023-04-09T01:35:56.154Z,99.90
2023-04-09T01:39:01.346Z,99.90
2023-04-09T01:42:04.553Z,99.90
2023-04-09T01:45:11.532Z,99.90
2023-04-09T01:48:14.962Z,99.90
2023-04-09T01:51:17.849Z,99.90
2023-04-09T01:54:20.716Z,99.90
2023-04-09T01:57:23.512Z,99.90
2023-04-09T02:00:36.275Z,99.90
2023-04-09T02:03:42.142Z,99.90
2023-04-09T02:06:52.865Z,99.90
2023-04-09T02:09:56.419Z,99.90
2023-04-09T02:13:01.422Z,99.90
2023-04-09T02:16:06.514Z,99.90
2023-04-09T02:19:09.579Z,99.90
2023-04-09T02:22:13.147Z,99.90
2023-04-09T02:25:16.615Z,99.90
2023-04-09T02:28:19.567Z,99.90
2023-04-09T02:31:24.187Z,99.90
2023-04-09T02:34:27.377Z,99.90
2023-04-09T02:37:30.406Z,99.90
2023-04-09T02:40:33.169Z,99.90
2023-04-09T02:43:35.973Z,99.90
2023-04-09T02:46:42.179Z,99.90
2023-04-09T02:49:45.043Z,99.90
2023-04-09T02:52:48.295Z,99.90
2023-04-09T02:55:51.062Z,99.90
2023-04-09T02:58:54.301Z,99.90
2023-04-09T03:01:58.668Z,99.90
2023-04-09T03:05:01.585Z,99.90
2023-04-09T03:08:04.935Z,99.90
2023-04-09T03:11:07.796Z,99.90
2023-04-09T03:14:10.759Z,99.90
2023-04-09T03:17:14.863Z,99.90
2023-04-09T03:20:17.698Z,99.90
2023-04-09T03:23:20.497Z,99.90
2023-04-09T03:26:23.271Z,99.90
2023-04-09T03:29:26.080Z,99.90
2023-04-09T03:32:30.186Z,99.90
2023-04-09T03:35:32.990Z,99.90
2023-04-09T03:38:35.964Z,99.90
2023-04-09T03:41:38.727Z,99.90
2023-04-09T03:44:41.481Z,99.90
2023-04-09T03:47:45.635Z,99.90
2023-04-09T03:50:48.423Z,99.90
2023-04-09T03:53:51.245Z,99.90
2023-04-09T03:56:53.992Z,99.90
2023-04-09T03:59:56.748Z,99.90
2023-04-09T04:03:01.092Z,99.90
2023-04-09T04:06:04.904Z,99.90
2023-04-09T04:09:07.740Z,99.90
2023-04-09T04:12:10.512Z,99.90
2023-04-09T04:15:13.441Z,99.90
2023-04-09T04:18:17.546Z,99.90
2023-04-09T04:21:20.340Z,99.90
2023-04-09T04:24:23.111Z,99.90
2023-04-09T04:27:25.892Z,99.90
2023-04-09T04:30:28.692Z,99.90
2023-04-09T04:33:33.002Z,99.90
2023-04-09T04:36:37.409Z,99.90
2023-04-09T04:39:40.428Z,99.90
2023-04-09T04:42:43.308Z,99.90
2023-04-09T04:45:46.081Z,99.90
2023-04-09T04:48:50.427Z,99.90
2023-04-09T04:51:53.430Z,99.90
2023-04-09T04:54:56.181Z,99.90
2023-04-09T04:57:58.937Z,99.90
2023-04-09T05:01:01.763Z,99.90
2023-04-09T05:04:06.129Z,99.90
2023-04-09T05:07:08.907Z,99.90
2023-04-09T05:10:11.844Z,99.90
2023-04-09T05:13:14.668Z,99.90
2023-04-09T05:16:18.534Z,99.90
2023-04-09T05:19:22.700Z,99.90
2023-04-09T05:22:25.456Z,99.90
2023-04-09T05:25:28.235Z,99.90
2023-04-09T05:28:31.196Z,99.90
2023-04-09T05:31:33.940Z,99.90
2023-04-09T05:34:38.316Z,99.90
2023-04-09T05:37:41.149Z,99.90
2023-04-09T05:40:45.764Z,99.90
2023-04-09T05:43:48.524Z,99.90
2023-04-09T05:46:51.393Z,99.90
2023-04-09T05:49:55.930Z,99.90
2023-04-09T05:52:58.895Z,99.90
2023-04-09T05:56:01.656Z,99.90
2023-04-09T05:59:04.471Z,99.90
2023-04-09T06:02:07.803Z,99.90
2023-04-09T06:05:12.189Z,99.90
2023-04-09T06:08:15.141Z,99.90
2023-04-09T06:11:17.903Z,99.90
2023-04-09T06:14:20.714Z,99.90
2023-04-09T06:17:23.504Z,99.90
2023-04-09T06:20:27.633Z,99.90
2023-04-09T06:23:30.426Z,99.90
2023-04-09T06:26:33.161Z,99.90
2023-04-09T06:29:36.036Z,99.90
2023-04-09T06:32:51.052Z,99.90
2023-04-09T06:35:57.744Z,99.90
2023-04-09T06:39:00.832Z,99.90
2023-04-09T06:42:03.912Z,99.90
2023-04-09T06:45:08.614Z,99.90
2023-04-09T06:48:11.973Z,99.90
2023-04-09T06:51:16.411Z,99.90
2023-04-09T06:54:19.189Z,99.90
2023-04-09T06:57:21.929Z,99.90
2023-04-09T07:00:24.783Z,99.90
2023-04-09T07:03:28.507Z,99.90
2023-04-09T07:06:32.765Z,99.90
2023-04-09T07:09:35.655Z,99.90
2023-04-09T07:12:38.451Z,98.60
2023-04-09T07:15:42.566Z,98.00
2023-04-09T07:18:45.701Z,97.40
2023-04-09T07:21:49.886Z,98.00
2023-04-09T07:24:54.984Z,97.60
2023-04-09T07:27:58.280Z,96.40
2023-04-09T07:31:02.835Z,96.60
2023-04-09T07:34:05.644Z,97.20
2023-04-09T07:37:09.795Z,96.60
2023-04-09T07:40:13.138Z,96.00
2023-04-09T07:43:16.769Z,96.00
2023-04-09T07:46:21.359Z,95.30
2023-04-09T07:49:24.116Z,95.90
2023-04-09T07:52:28.348Z,94.60
2023-04-09T07:55:31.181Z,94.00
2023-04-09T07:58:34.053Z,94.10
2023-04-09T08:01:36.894Z,94.10
2023-04-09T08:04:39.772Z,94.10
2023-04-09T08:07:44.055Z,94.40
2023-04-09T08:10:46.854Z,94.90
2023-04-09T08:13:49.627Z,94.10
2023-04-09T08:16:52.499Z,94.00
2023-04-09T08:19:55.326Z,94.50
2023-04-09T08:22:59.489Z,93.30
2023-04-09T08:26:02.245Z,93.00
2023-04-09T08:29:05.262Z,92.90
2023-04-09T08:32:08.159Z,91.90
2023-04-09T08:35:11.444Z,93.00
2023-04-09T08:38:18.857Z,91.50
2023-04-09T08:41:24.670Z,91.60
2023-04-09T08:44:27.729Z,91.40
2023-04-09T08:47:31.431Z,91.70
2023-04-09T08:50:34.780Z,90.60
2023-04-09T08:53:40.111Z,88.20
2023-04-09T08:56:42.868Z,91.00
2023-04-09T08:59:46.495Z,90.60
2023-04-09T09:03:11.695Z,90.70
2023-04-09T09:06:22.783Z,90.70
2023-04-09T09:09:26.911Z,89.90
2023-04-09T09:12:38.188Z,89.70
2023-04-09T09:15:41.101Z,90.10
2023-04-09T09:18:45.217Z,88.30
2023-04-09T09:21:56.635Z,89.00
2023-04-09T09:25:00.935Z,87.40
2023-04-09T09:28:09.336Z,88.80
2023-04-09T09:31:13.662Z,93.40
2023-04-09T09:34:16.871Z,88.90
2023-04-09T09:37:27.947Z,87.90
2023-04-09T09:40:32.184Z,86.50
2023-04-09T09:43:42.445Z,84.00
2023-04-09T09:46:45.245Z,86.60
2023-04-09T09:49:50.205Z,85.80
2023-04-09T09:52:58.566Z,85.30
2023-04-09T09:56:03.441Z,83.80
2023-04-09T09:59:08.980Z,83.20
2023-04-09T10:02:19.499Z,84.60
2023-04-09T10:05:26.880Z,85.50
2023-04-09T10:08:31.143Z,84.80
2023-04-09T10:11:37.619Z,81.90
2023-04-09T10:14:41.134Z,82.30
2023-04-09T10:17:43.957Z,81.40
2023-04-09T10:20:56.093Z,84.80
2023-04-09T10:23:59.844Z,81.70
2023-04-09T10:27:15.227Z,80.70
2023-04-09T10:30:35.003Z,80.80
2023-04-09T10:33:38.977Z,76.90
2023-04-09T10:36:44.629Z,79.60
2023-04-09T10:39:48.811Z,78.50
2023-04-09T10:42:53.557Z,79.40
2023-04-09T10:45:58.988Z,78.00
2023-04-09T10:49:12.341Z,77.50
2023-04-09T10:52:16.179Z,76.30
2023-04-09T10:55:33.783Z,74.50
2023-04-09T10:58:37.941Z,75.20
2023-04-09T11:01:40.769Z,74.60
2023-04-09T11:04:55.430Z,76.70
2023-04-09T11:08:04.105Z,76.60
2023-04-09T11:11:06.988Z,79.50
2023-04-09T11:14:11.094Z,77.90
2023-04-09T11:17:14.078Z,74.90
2023-04-09T11:20:18.435Z,69.70
2023-04-09T11:23:21.461Z,70.50
2023-04-09T11:26:35.766Z,73.90
2023-04-09T11:29:40.518Z,73.60
2023-04-09T11:32:43.630Z,72.60
2023-04-09T11:35:46.461Z,72.60
2023-04-09T11:38:49.997Z,73.20
2023-04-09T11:41:53.314Z,73.10
2023-04-09T11:44:57.555Z,72.90
2023-04-09T11:48:00.503Z,72.70
2023-04-09T11:51:03.946Z,71.30
2023-04-09T11:54:07.694Z,72.80
2023-04-09T11:57:10.710Z,71.30
2023-04-09T12:00:16.692Z,72.60
2023-04-09T12:03:19.744Z,70.00
2023-04-09T12:06:24.688Z,70.70
2023-04-09T12:09:27.622Z,72.80
2023-04-09T12:12:30.438Z,72.50
2023-04-09T12:15:36.953Z,72.30
2023-04-09T12:18:40.601Z,73.30
2023-04-09T12:21:47.665Z,72.90
2023-04-09T12:24:50.514Z,72.80
2023-04-09T12:27:54.104Z,73.60
2023-04-09T12:30:59.436Z,73.90
2023-04-09T12:34:02.375Z,73.90
2023-04-09T12:37:05.425Z,74.90
2023-04-09T12:40:09.401Z,71.30
2023-04-09T12:43:12.158Z,70.70
2023-04-09T12:46:17.440Z,69.90
2023-04-09T12:49:20.223Z,66.90
2023-04-09T12:52:24.622Z,69.20
2023-04-09T12:55:27.870Z,69.70
2023-04-09T12:58:31.239Z,71.20
2023-04-09T13:01:35.433Z,69.50
2023-04-09T13:04:38.590Z,69.70
2023-04-09T13:07:43.013Z,68.10
2023-04-09T13:10:46.432Z,66.20
2023-04-09T13:13:49.216Z,65.70
2023-04-09T13:16:54.038Z,66.40
2023-04-09T13:19:56.927Z,63.80
2023-04-09T13:22:59.670Z,66.50
2023-04-09T13:26:02.438Z,66.30
2023-04-09T13:29:05.223Z,68.50
2023-04-09T13:32:11.357Z,67.60
2023-04-09T13:35:14.338Z,68.20
2023-04-09T13:38:17.096Z,67.50
2023-04-09T13:41:19.892Z,67.80
2023-04-09T13:44:22.656Z,68.40
2023-04-09T13:47:27.074Z,67.60
2023-04-09T13:50:30.748Z,69.80
2023-04-09T13:53:33.544Z,70.40
2023-04-09T13:56:37.030Z,70.20
2023-04-09T13:59:41.628Z,70.80
2023-04-09T14:02:45.785Z,72.20
2023-04-09T14:05:49.090Z,71.80
2023-04-09T14:08:52.121Z,70.00
2023-04-09T14:11:56.096Z,70.80
2023-04-09T14:14:58.865Z,69.30
2023-04-09T14:18:03.023Z,68.30
2023-04-09T14:21:08.106Z,68.80
2023-04-09T14:24:12.422Z,67.70
2023-04-09T14:27:15.671Z,65.10
2023-04-09T14:30:19.003Z,65.60
2023-04-09T14:33:23.103Z,65.10
2023-04-09T14:36:26.979Z,63.60
2023-04-09T14:39:29.864Z,64.60
2023-04-09T14:42:32.634Z,64.60
2023-04-09T14:45:35.416Z,64.90
2023-04-09T14:48:40.266Z,63.50
2023-04-09T14:51:43.108Z,63.40
2023-04-09T14:54:46.318Z,63.20
2023-04-09T14:57:49.125Z,63.90
2023-04-09T15:00:51.894Z,64.90
2023-04-09T15:03:56.231Z,64.30
2023-04-09T15:06:59.310Z,64.70
2023-04-09T15:10:02.228Z,64.50
2023-04-09T15:13:05.214Z,63.80
2023-04-09T15:16:09.051Z,62.50
2023-04-09T15:19:13.453Z,63.10
2023-04-09T15:22:16.454Z,64.00
2023-04-09T15:25:19.501Z,62.60
2023-04-09T15:28:22.294Z,63.40
2023-04-09T15:31:25.364Z,65.40
2023-04-09T15:34:29.887Z,63.60
2023-04-09T15:37:32.649Z,63.70
2023-04-09T15:40:35.609Z,63.40
2023-04-09T15:43:38.505Z,63.80
2023-04-09T15:46:41.591Z,64.00
2023-04-09T15:49:45.757Z,61.40
2023-04-09T15:52:48.738Z,61.70
2023-04-09T15:55:51.500Z,63.00
2023-04-09T15:58:54.438Z,60.70
2023-04-09T16:01:57.784Z,61.40
2023-04-09T16:05:01.911Z,59.40
2023-04-09T16:08:04.764Z,61.50
2023-04-09T16:11:08.528Z,61.60
2023-04-09T16:14:11.298Z,62.70
2023-04-09T16:17:14.159Z,64.20
2023-04-09T16:20:18.469Z,63.10
2023-04-09T16:23:21.404Z,63.20
2023-04-09T16:26:24.205Z,63.70
2023-04-09T16:29:27.021Z,64.60
2023-04-09T16:32:29.890Z,63.80
2023-04-09T16:35:34.069Z,64.20
2023-04-09T16:38:36.876Z,63.00
2023-04-09T16:41:39.787Z,62.00
2023-04-09T16:44:42.534Z,60.40
2023-04-09T16:50:49.525Z,60.20
2023-04-09T16:53:52.324Z,61.00
2023-04-09T16:56:57.125Z,60.20
2023-04-09T16:59:59.877Z,60.40
2023-04-09T17:03:02.848Z,61.00
2023-04-09T17:06:07.507Z,61.00
2023-04-09T17:09:10.353Z,62.00
2023-04-09T17:12:13.119Z,61.70
2023-04-09T17:15:16.337Z,62.20
2023-04-09T17:18:19.153Z,62.90
2023-04-09T17:21:23.766Z,62.50
2023-04-09T17:24:26.924Z,63.70
2023-04-09T17:27:30.225Z,63.00
2023-04-09T17:30:33.921Z,64.70
2023-04-09T17:33:36.747Z,66.00
2023-04-09T17:36:41.368Z,65.70
2023-04-09T17:39:44.160Z,64.80
2023-04-09T17:42:47.177Z,65.80
2023-04-09T17:45:50.228Z,66.30
2023-04-09T17:48:53.488Z,67.30
2023-04-09T17:51:57.952Z,67.30
2023-04-09T17:55:01.340Z,67.60
2023-04-09T17:58:04.140Z,68.80
2023-04-09T18:01:08.418Z,68.60
2023-04-09T18:04:11.640Z,70.20
2023-04-09T18:07:16.027Z,69.50
2023-04-09T18:10:18.881Z,69.70
2023-04-09T18:13:21.665Z,69.90
2023-04-09T18:16:24.630Z,70.20
2023-04-09T18:19:27.457Z,70.40
2023-04-09T18:22:31.568Z,70.70
2023-04-09T18:25:34.485Z,71.00
2023-04-09T18:28:37.259Z,70.80
2023-04-09T18:31:40.020Z,70.90
2023-04-09T18:34:44.996Z,71.90
2023-04-09T18:37:49.118Z,72.90
2023-04-09T18:40:51.849Z,72.50
2023-04-09T18:43:54.638Z,73.00
2023-04-09T18:46:59.286Z,73.50
2023-04-09T18:50:02.350Z,74.10
2023-04-09T18:53:06.986Z,74.00
2023-04-09T18:56:09.842Z,74.40
2023-04-09T18:59:12.749Z,74.80
2023-04-09T19:02:15.579Z,75.00
2023-04-09T19:05:18.686Z,76.20
2023-04-09T19:08:23.121Z,75.80
2023-04-09T19:11:26.302Z,75.50
2023-04-09T19:14:29.172Z,76.00
2023-04-09T19:17:32.031Z,75.50
2023-04-09T19:20:34.859Z,75.80
2023-04-09T19:23:38.975Z,76.20
2023-04-09T19:26:41.739Z,76.10
2023-04-09T19:29:46.164Z,76.30
2023-04-09T19:32:48.992Z,76.70
2023-04-09T19:35:52.604Z,76.80
2023-04-09T19:38:56.720Z,77.20
2023-04-09T19:41:59.493Z,77.60
2023-04-09T19:45:02.365Z,78.10
2023-04-09T19:48:05.840Z,78.20
2023-04-09T19:51:08.691Z,78.70
2023-04-09T19:54:12.843Z,78.90
2023-04-09T19:57:16.413Z,79.70
2023-04-09T20:00:19.165Z,79.60
2023-04-09T20:03:22.359Z,79.90
2023-04-09T20:06:26.003Z,79.90
2023-04-09T20:09:30.202Z,79.80
2023-04-09T20:12:33.230Z,79.90
2023-04-09T20:15:36.031Z,80.40
2023-04-09T20:18:38.813Z,80.50
2023-04-09T20:21:43.466Z,80.90
2023-04-09T20:24:48.058Z,81.90
2023-04-09T20:27:53.199Z,81.90
2023-04-09T20:30:56.559Z,81.90
2023-04-09T20:33:59.328Z,82.00
2023-04-09T20:37:02.185Z,81.90
2023-04-09T20:40:07.537Z,81.80
2023-04-09T20:43:10.338Z,82.20
2023-04-09T20:46:13.653Z,82.30
2023-04-09T20:49:16.480Z,82.90
2023-04-09T20:52:19.499Z,83.90
2023-04-09T20:55:23.674Z,85.00
2023-04-09T20:58:27.462Z,85.90
2023-04-09T21:01:30.513Z,86.00
2023-04-09T21:04:33.354Z,86.40
2023-04-09T21:07:36.140Z,86.30
2023-04-09T21:10:40.507Z,85.70
2023-04-09T21:13:53.845Z,86.00
2023-04-09T21:16:58.116Z,85.70
2023-04-09T21:20:01.685Z,86.10
2023-04-09T21:23:04.444Z,85.70
2023-04-09T21:26:08.950Z,85.70
2023-04-09T21:29:12.203Z,85.90
2023-04-09T21:32:15.089Z,86.10
2023-04-09T21:35:17.985Z,86.50
2023-04-09T21:38:21.105Z,86.80
2023-04-09T21:41:25.256Z,86.90
2023-04-09T21:44:28.005Z,87.00
2023-04-09T21:47:31.905Z,87.20
2023-04-09T21:50:34.691Z,87.40
2023-04-09T21:53:37.433Z,86.90
2023-04-09T21:56:41.522Z,86.50
2023-04-09T21:59:44.281Z,86.50
2023-04-09T22:02:47.264Z,86.30
2023-04-09T22:05:50.109Z,86.80
2023-04-09T22:08:56.309Z,86.90
2023-04-09T22:12:02.621Z,86.60
2023-04-09T22:15:06.364Z,87.00
2023-04-09T22:18:09.117Z,87.00
2023-04-09T22:21:15.068Z,87.20
2023-04-09T22:24:19.235Z,87.20
2023-04-09T22:27:23.362Z,87.10
2023-04-09T22:30:26.196Z,87.50
2023-04-09T22:33:29.365Z,88.90
2023-04-09T22:36:32.498Z,88.40
2023-04-09T22:39:35.288Z,88.50
2023-04-09T22:42:40.013Z,88.20
2023-04-09T22:45:43.047Z,88.10
2023-04-09T22:48:46.632Z,88.30
2023-04-09T22:51:49.425Z,88.70
2023-04-09T22:54:52.180Z,88.70
2023-04-09T22:57:57.557Z,88.40
2023-04-09T23:01:00.490Z,87.90
2023-04-09T23:04:03.459Z,88.20
2023-04-09T23:07:07.829Z,88.40
2023-04-09T23:10:14.113Z,87.90
2023-04-09T23:13:18.246Z,88.00
2023-04-09T23:16:21.410Z,88.40
2023-04-09T23:19:24.228Z,88.80
2023-04-09T23:22:27.307Z,89.10
2023-04-09T23:25:30.191Z,89.20
2023-04-09T23:28:34.475Z,89.20
2023-04-09T23:31:37.298Z,89.20
2023-04-09T23:34:40.156Z,89.70
2023-04-09T23:37:43.664Z,89.70
2023-04-09T23:40:47.323Z,90.00
2023-04-09T23:43:51.989Z,90.10
2023-04-09T23:46:55.040Z,90.30
2023-04-09T23:49:57.891Z,90.20
2023-04-09T23:53:03.651Z,90.10
2023-04-09T23:56:07.154Z,90.00
2023-04-09T23:59:11.344Z,90.40
